createdAt,value
2019-05-07T00:02:22.625Z,4.30
2019-05-07T00:04:55.988Z,4.30
2019-05-07T00:07:32.051Z,4.30
2019-05-07T00:10:06.358Z,4.20
2019-05-07T00:12:40.019Z,4.10
2019-05-07T00:15:13.802Z,4.00
2019-05-07T00:17:47.486Z,3.90
2019-05-07T00:20:23.139Z,3.90
2019-05-07T00:22:56.722Z,3.80
2019-05-07T00:25:32.550Z,3.80
2019-05-07T00:28:06.620Z,3.70
2019-05-07T00:30:42.258Z,3.70
2019-05-07T00:33:14.867Z,3.70
2019-05-07T00:36:14.269Z,3.70
2019-05-07T00:38:52.081Z,3.80
2019-05-07T00:41:49.195Z,3.70
2019-05-07T00:44:23.786Z,3.80
2019-05-07T00:46:57.023Z,3.80
2019-05-07T00:49:32.986Z,3.80
2019-05-07T00:52:05.831Z,3.80
2019-05-07T00:54:39.666Z,3.70
2019-05-07T00:57:13.072Z,3.70
2019-05-07T00:59:46.249Z,3.70
2019-05-07T01:02:22.425Z,3.70
2019-05-07T01:04:57.165Z,3.70
2019-05-07T01:07:32.336Z,3.70
2019-05-07T01:10:05.365Z,3.60
2019-05-07T01:12:38.612Z,3.50
2019-05-07T01:15:12.884Z,3.50
2019-05-07T01:17:46.290Z,3.40
2019-05-07T01:20:22.099Z,3.40
2019-05-07T01:22:55.790Z,3.30
2019-05-07T01:25:29.314Z,3.20
2019-05-07T01:28:02.754Z,3.20
2019-05-07T01:30:36.031Z,3.10
2019-05-07T01:33:17.191Z,3.10
2019-05-07T01:36:13.551Z,3.10
2019-05-07T01:38:48.138Z,3.00
2019-05-07T01:41:23.091Z,3.00
2019-05-07T01:43:56.522Z,3.00
2019-05-07T01:46:32.312Z,3.00
2019-05-07T01:49:06.059Z,3.00
2019-05-07T01:51:42.111Z,3.00
2019-05-07T01:54:14.417Z,3.00
2019-05-07T01:56:47.756Z,3.00
2019-05-07T01:59:22.465Z,3.00
2019-05-07T02:01:59.138Z,3.00
2019-05-07T02:04:54.753Z,3.00
2019-05-07T02:07:52.023Z,2.90
2019-05-07T02:10:55.736Z,2.90
2019-05-07T02:13:30.407Z,2.90
2019-05-07T02:16:06.865Z,2.80
2019-05-07T02:18:42.257Z,2.80
2019-05-07T02:21:15.189Z,2.70
2019-05-07T02:23:48.056Z,2.80
2019-05-07T02:26:22.554Z,2.70
2019-05-07T02:28:55.902Z,2.70
2019-05-07T02:31:29.245Z,2.60
2019-05-07T02:34:03.040Z,2.60
2019-05-07T02:36:37.462Z,2.60
2019-05-07T02:39:17.223Z,2.60
2019-05-07T02:41:53.917Z,2.60
2019-05-07T02:44:26.466Z,2.50
2019-05-07T02:47:09.482Z,2.50
2019-05-07T02:49:49.181Z,2.50
2019-05-07T02:52:47.381Z,2.50
2019-05-07T02:55:45.184Z,2.40
2019-05-07T02:58:18.747Z,2.40
2019-05-07T03:00:53.248Z,2.40
2019-05-07T03:03:28.205Z,2.40
2019-05-07T03:06:03.372Z,2.30
2019-05-07T03:08:36.746Z,2.30
2019-05-07T03:11:09.588Z,2.30
2019-05-07T03:13:43.349Z,2.30
2019-05-07T03:16:33.688Z,2.20
2019-05-07T03:18:53.287Z,2.20
2019-05-07T03:21:28.146Z,2.20
2019-05-07T03:24:18.949Z,2.20
2019-05-07T03:26:53.538Z,2.20
2019-05-07T03:29:26.906Z,2.10
2019-05-07T03:32:19.313Z,2.10
2019-05-07T03:35:18.173Z,2.00
2019-05-07T03:37:54.692Z,2.00
2019-05-07T03:40:29.234Z,2.00
2019-05-07T03:43:06.038Z,2.10
2019-05-07T03:45:57.175Z,2.10
2019-05-07T03:48:33.302Z,2.10
2019-05-07T03:51:07.508Z,2.10
2019-05-07T03:53:43.711Z,2.10
2019-05-07T03:56:15.252Z,1.90
2019-05-07T03:58:48.564Z,2.00
2019-05-07T04:01:24.089Z,1.90
2019-05-07T04:03:57.407Z,1.90
2019-05-07T04:06:33.068Z,1.80
2019-05-07T04:09:06.494Z,1.80
2019-05-07T04:11:39.290Z,1.90
2019-05-07T04:14:13.713Z,1.90
2019-05-07T04:16:46.786Z,1.90
2019-05-07T04:19:23.381Z,1.90
2019-05-07T04:21:55.118Z,1.90
2019-05-07T04:24:45.012Z,1.90
2019-05-07T04:27:36.369Z,2.00
2019-05-07T04:30:12.519Z,1.90
2019-05-07T04:32:52.773Z,1.90
2019-05-07T04:35:35.091Z,1.90
2019-05-07T04:38:08.982Z,1.90
2019-05-07T04:40:43.502Z,1.90
2019-05-07T04:43:17.794Z,2.00
2019-05-07T04:45:53.766Z,2.00
2019-05-07T04:48:26.594Z,2.20
2019-05-07T04:51:03.508Z,2.30
2019-05-07T04:53:36.705Z,2.30
2019-05-07T04:56:10.321Z,2.40
2019-05-07T04:58:44.530Z,2.40
2019-05-07T05:01:23.197Z,2.50
2019-05-07T05:03:58.638Z,2.60
2019-05-07T05:06:33.119Z,2.70
2019-05-07T05:09:07.905Z,2.80
2019-05-07T05:11:43.897Z,2.90
2019-05-07T05:14:17.374Z,3.00
2019-05-07T05:16:52.490Z,3.20
2019-05-07T05:19:27.537Z,3.20
2019-05-07T05:22:22.103Z,3.40
2019-05-07T05:25:22.735Z,3.60
2019-05-07T05:27:56.314Z,3.70
2019-05-07T05:30:39.213Z,3.90
2019-05-07T05:33:12.840Z,4.00
2019-05-07T05:35:46.793Z,4.20
2019-05-07T05:38:22.158Z,4.40
2019-05-07T05:40:56.610Z,4.50
2019-05-07T05:43:44.537Z,4.50
2019-05-07T05:46:18.603Z,4.70
2019-05-07T05:48:52.009Z,5.10
2019-05-07T05:51:43.375Z,5.30
2019-05-07T05:54:35.780Z,5.70
2019-05-07T05:57:34.576Z,6.20
2019-05-07T06:00:46.731Z,6.80
2019-05-07T06:03:55.214Z,7.40
2019-05-07T06:06:36.887Z,8.10
2019-05-07T06:09:28.096Z,8.50
2019-05-07T06:12:16.962Z,9.00
2019-05-07T06:14:54.405Z,9.30
2019-05-07T06:17:44.986Z,9.60
2019-05-07T06:20:36.208Z,9.80
2019-05-07T06:23:32.996Z,10.10
2019-05-07T06:26:06.637Z,10.30
2019-05-07T06:28:42.414Z,10.50
2019-05-07T06:31:22.004Z,10.50
2019-05-07T06:33:54.817Z,10.70
2019-05-07T06:36:29.758Z,11.00
2019-05-07T06:39:22.232Z,11.20
2019-05-07T06:42:13.545Z,11.30
2019-05-07T06:45:03.050Z,11.50
2019-05-07T06:47:37.335Z,11.90
2019-05-07T06:50:12.532Z,12.20
2019-05-07T06:52:47.389Z,12.60
2019-05-07T06:55:22.754Z,12.90
2019-05-07T06:57:57.371Z,13.10
2019-05-07T07:01:06.983Z,13.20
2019-05-07T07:03:59.475Z,13.40
2019-05-07T07:06:40.116Z,13.80
2019-05-07T07:09:35.359Z,14.30
2019-05-07T07:12:13.232Z,14.60
2019-05-07T07:14:48.623Z,14.60
2019-05-07T07:17:22.296Z,14.80
2019-05-07T07:19:56.163Z,15.20
2019-05-07T07:22:31.924Z,15.50
2019-05-07T07:25:06.677Z,15.80
2019-05-07T07:27:40.213Z,16.40
2019-05-07T07:30:32.474Z,16.80
2019-05-07T07:33:08.408Z,17.10
2019-05-07T07:35:44.454Z,17.40
2019-05-07T07:38:37.678Z,17.60
2019-05-07T07:41:22.259Z,18.10
2019-05-07T07:43:56.249Z,18.40
2019-05-07T07:46:32.846Z,18.10
2019-05-07T07:49:10.975Z,18.70
2019-05-07T07:51:45.166Z,18.80
2019-05-07T07:54:17.714Z,19.00
2019-05-07T07:57:03.680Z,19.20
2019-05-07T07:59:53.022Z,19.40
2019-05-07T08:02:46.347Z,19.50
2019-05-07T08:05:21.924Z,19.50
2019-05-07T08:07:56.921Z,19.30
2019-05-07T08:10:32.520Z,19.30
2019-05-07T08:13:05.890Z,19.80
2019-05-07T08:15:40.208Z,20.10
2019-05-07T08:18:14.197Z,20.30
2019-05-07T08:20:48.190Z,20.30
2019-05-07T08:23:22.668Z,20.60
2019-05-07T08:25:56.502Z,20.80
2019-05-07T08:28:31.887Z,21.40
2019-05-07T08:31:32.072Z,21.50
2019-05-07T08:34:15.836Z,21.60
2019-05-07T08:36:49.632Z,21.50
2019-05-07T08:39:25.154Z,21.80
2019-05-07T08:41:58.506Z,21.90
2019-05-07T08:44:38.870Z,20.80
2019-05-07T08:47:24.315Z,20.20
2019-05-07T08:49:58.061Z,20.10
2019-05-07T08:52:34.252Z,20.90
2019-05-07T08:55:08.716Z,21.30
2019-05-07T08:57:45.550Z,22.10
2019-05-07T09:00:22.219Z,22.20
2019-05-07T09:02:54.965Z,22.50
2019-05-07T09:05:28.570Z,22.70
2019-05-07T09:08:02.379Z,22.70
2019-05-07T09:10:35.873Z,22.80
2019-05-07T09:13:12.462Z,22.80
2019-05-07T09:15:45.670Z,22.90
2019-05-07T09:18:19.419Z,23.00
2019-05-07T09:20:54.007Z,23.20
2019-05-07T09:23:27.528Z,23.00
2019-05-07T09:26:02.737Z,23.20
2019-05-07T09:29:13.973Z,23.00
2019-05-07T09:32:05.382Z,23.30
2019-05-07T09:34:45.883Z,23.50
2019-05-07T09:37:24.283Z,23.50
2019-05-07T09:39:58.209Z,23.60
2019-05-07T09:42:33.492Z,23.50
2019-05-07T09:45:08.203Z,22.80
2019-05-07T09:47:43.619Z,23.10
2019-05-07T09:50:18.378Z,23.20
2019-05-07T09:52:52.765Z,23.30
2019-05-07T09:55:26.669Z,23.60
2019-05-07T09:58:02.009Z,24.00
2019-05-07T10:00:37.221Z,24.40
2019-05-07T10:03:12.818Z,24.70
2019-05-07T10:05:47.400Z,25.00
2019-05-07T10:08:22.641Z,24.90
2019-05-07T10:10:57.193Z,24.70
2019-05-07T10:13:49.343Z,24.60
2019-05-07T10:16:30.560Z,24.80
2019-05-07T10:19:04.221Z,25.00
2019-05-07T10:21:38.125Z,25.10
2019-05-07T10:24:12.960Z,25.30
2019-05-07T10:26:47.017Z,25.30
2019-05-07T10:29:22.721Z,25.20
2019-05-07T10:31:56.688Z,25.40
2019-05-07T10:34:33.539Z,23.90
2019-05-07T10:37:06.937Z,24.00
2019-05-07T10:39:43.132Z,24.50
2019-05-07T10:42:17.230Z,25.30
2019-05-07T10:44:59.308Z,25.70
2019-05-07T10:47:52.122Z,25.80
2019-05-07T10:50:36.315Z,25.70
2019-05-07T10:53:04.304Z,25.70
2019-05-07T10:55:38.087Z,25.70
2019-05-07T10:58:11.865Z,25.50
2019-05-07T11:00:45.984Z,25.70
2019-05-07T11:03:21.766Z,25.90
2019-05-07T11:05:55.739Z,26.10
2019-05-07T11:08:29.427Z,26.50
2019-05-07T11:11:03.115Z,26.40
2019-05-07T11:13:37.272Z,26.50
2019-05-07T11:16:13.661Z,26.50
2019-05-07T11:18:49.150Z,25.70
2019-05-07T11:21:33.617Z,25.40
2019-05-07T11:24:08.024Z,25.40
2019-05-07T11:26:42.249Z,26.40
2019-05-07T11:29:16.151Z,26.60
2019-05-07T11:31:50.033Z,26.10
2019-05-07T11:34:24.271Z,26.40
2019-05-07T11:36:58.103Z,25.70
2019-05-07T11:39:33.194Z,24.50
2019-05-07T11:42:18.247Z,23.80
2019-05-07T11:44:55.175Z,24.00
2019-05-07T11:47:33.257Z,24.50
2019-05-07T11:50:38.690Z,25.00
2019-05-07T11:53:14.932Z,25.20
2019-05-07T11:55:49.225Z,25.40
2019-05-07T11:58:24.669Z,25.40
2019-05-07T12:01:12.596Z,25.40
2019-05-07T12:03:46.776Z,25.40
2019-05-07T12:06:21.683Z,24.00
2019-05-07T12:08:55.480Z,23.10
2019-05-07T12:11:29.777Z,22.70
2019-05-07T12:14:04.083Z,23.00
2019-05-07T12:16:38.340Z,23.50
2019-05-07T12:19:12.992Z,23.60
2019-05-07T12:21:46.707Z,24.30
2019-05-07T12:24:22.312Z,24.90
2019-05-07T12:26:57.882Z,25.20
2019-05-07T12:29:32.384Z,25.30
2019-05-07T12:32:23.963Z,25.10
2019-05-07T12:35:02.923Z,25.20
2019-05-07T12:37:37.108Z,25.40
2019-05-07T12:40:14.624Z,25.40
2019-05-07T12:42:48.645Z,25.50
2019-05-07T12:45:23.254Z,25.90
2019-05-07T12:47:57.374Z,25.70
2019-05-07T12:50:32.280Z,26.20
2019-05-07T12:53:12.758Z,26.30
2019-05-07T12:55:55.366Z,26.50
2019-05-07T12:58:29.808Z,26.30
2019-05-07T13:01:17.106Z,26.00
2019-05-07T13:04:10.796Z,25.70
2019-05-07T13:07:15.961Z,25.90
2019-05-07T13:09:49.180Z,26.00
2019-05-07T13:12:23.977Z,26.10
2019-05-07T13:14:58.499Z,25.30
2019-05-07T13:17:33.779Z,24.70
2019-05-07T13:20:09.205Z,24.10
2019-05-07T13:22:43.896Z,23.80
2019-05-07T13:25:18.456Z,24.50
2019-05-07T13:27:54.493Z,25.30
2019-05-07T13:30:28.491Z,24.30
2019-05-07T13:33:06.045Z,23.90
2019-05-07T13:35:42.044Z,23.40
2019-05-07T13:38:43.096Z,24.30
2019-05-07T13:41:42.377Z,24.50
2019-05-07T13:44:41.765Z,25.20
2019-05-07T13:47:33.158Z,25.80
2019-05-07T13:50:08.017Z,24.80
2019-05-07T13:52:43.472Z,25.00
2019-05-07T13:55:17.746Z,25.20
2019-05-07T13:57:52.439Z,24.90
2019-05-07T14:00:35.464Z,23.60
2019-05-07T14:03:12.048Z,23.00
2019-05-07T14:05:47.638Z,22.10
2019-05-07T14:08:23.115Z,21.40
2019-05-07T14:11:02.795Z,21.60
2019-05-07T14:13:37.737Z,21.60
2019-05-07T14:16:13.473Z,21.60
2019-05-07T14:18:48.171Z,21.60
2019-05-07T14:21:23.468Z,21.50
2019-05-07T14:23:57.182Z,21.60
2019-05-07T14:26:32.516Z,21.10
2019-05-07T14:29:08.358Z,20.60
2019-05-07T14:31:42.625Z,20.20
2019-05-07T14:34:32.149Z,20.60
2019-05-07T14:37:18.593Z,21.20
2019-05-07T14:39:52.458Z,21.90
2019-05-07T14:42:32.879Z,21.80
2019-05-07T14:45:06.530Z,22.10
2019-05-07T14:47:44.253Z,22.10
2019-05-07T14:50:16.014Z,22.10
2019-05-07T14:52:49.307Z,21.90
2019-05-07T14:55:28.753Z,21.70
2019-05-07T14:58:02.911Z,21.90
2019-05-07T15:00:36.764Z,22.40
2019-05-07T15:03:18.407Z,22.80
2019-05-07T15:05:52.593Z,22.80
2019-05-07T15:08:26.097Z,22.50
2019-05-07T15:10:59.972Z,22.80
2019-05-07T15:13:33.263Z,22.70
2019-05-07T15:16:11.964Z,22.60
2019-05-07T15:19:05.139Z,22.20
2019-05-07T15:21:39.533Z,22.10
2019-05-07T15:24:13.468Z,22.00
2019-05-07T15:26:50.040Z,22.00
2019-05-07T15:29:23.836Z,22.20
2019-05-07T15:32:03.415Z,22.30
2019-05-07T15:34:42.096Z,22.70
2019-05-07T15:37:16.957Z,22.30
2019-05-07T15:39:52.695Z,21.60
2019-05-07T15:42:28.027Z,21.60
2019-05-07T15:45:03.328Z,21.70
2019-05-07T15:47:45.809Z,21.40
2019-05-07T15:50:20.130Z,21.10
2019-05-07T15:53:12.370Z,21.00
2019-05-07T15:55:52.284Z,21.30
2019-05-07T15:58:27.114Z,21.40
2019-05-07T16:01:02.807Z,21.00
2019-05-07T16:03:43.762Z,21.10
2019-05-07T16:06:24.926Z,21.30
2019-05-07T16:09:04.647Z,20.50
2019-05-07T16:11:38.589Z,20.20
2019-05-07T16:14:28.589Z,20.20
2019-05-07T16:17:08.848Z,20.50
2019-05-07T16:19:44.103Z,20.30
2019-05-07T16:22:32.650Z,20.20
2019-05-07T16:25:07.461Z,20.00
2019-05-07T16:27:45.161Z,19.60
2019-05-07T16:30:19.045Z,19.50
2019-05-07T16:32:55.225Z,19.30
2019-05-07T16:35:28.479Z,19.10
2019-05-07T16:38:02.691Z,19.10
2019-05-07T16:40:37.585Z,19.10
2019-05-07T16:43:12.427Z,19.00
2019-05-07T16:45:47.141Z,18.90
2019-05-07T16:48:23.220Z,18.80
2019-05-07T16:50:56.793Z,18.80
2019-05-07T16:53:35.032Z,18.70
2019-05-07T16:56:12.233Z,18.50
2019-05-07T16:58:59.041Z,18.20
2019-05-07T17:01:33.901Z,18.30
2019-05-07T17:04:12.193Z,18.30
2019-05-07T17:06:55.097Z,18.20
2019-05-07T17:09:31.518Z,18.40
2019-05-07T17:12:08.201Z,18.20
2019-05-07T17:14:42.682Z,18.40
2019-05-07T17:17:16.840Z,18.50
2019-05-07T17:19:53.477Z,18.20
2019-05-07T17:22:26.849Z,18.00
2019-05-07T17:25:03.109Z,17.80
2019-05-07T17:27:37.193Z,17.60
2019-05-07T17:30:13.774Z,17.80
2019-05-07T17:32:48.850Z,17.70
2019-05-07T17:35:24.039Z,17.60
2019-05-07T17:38:06.450Z,17.50
2019-05-07T17:40:33.434Z,16.80
2019-05-07T17:43:08.357Z,16.40
2019-05-07T17:45:42.961Z,16.30
2019-05-07T17:48:17.932Z,16.00
2019-05-07T17:51:18.165Z,15.90
2019-05-07T17:54:00.118Z,15.80
2019-05-07T17:56:33.130Z,15.60
2019-05-07T17:59:07.678Z,15.60
2019-05-07T18:01:56.582Z,15.50
2019-05-07T18:04:47.495Z,15.30
2019-05-07T18:07:12.106Z,15.10
2019-05-07T18:09:47.925Z,15.00
2019-05-07T18:12:25.262Z,14.90
2019-05-07T18:15:02.287Z,14.90
2019-05-07T18:17:46.184Z,14.90
2019-05-07T18:20:22.200Z,14.90
2019-05-07T18:22:57.670Z,14.80
2019-05-07T18:25:32.561Z,14.90
2019-05-07T18:28:07.814Z,14.90
2019-05-07T18:30:44.496Z,14.80
2019-05-07T18:33:47.468Z,14.80
2019-05-07T18:36:25.325Z,14.80
2019-05-07T18:39:01.667Z,14.80
2019-05-07T18:41:38.271Z,14.60
2019-05-07T18:44:18.185Z,14.60
2019-05-07T18:46:53.492Z,14.50
2019-05-07T18:49:42.019Z,14.40
2019-05-07T18:52:17.674Z,14.30
2019-05-07T18:54:53.566Z,14.20
2019-05-07T18:57:29.359Z,14.10
2019-05-07T19:00:07.243Z,14.00
2019-05-07T19:02:49.599Z,13.90
2019-05-07T19:05:25.157Z,13.80
2019-05-07T19:08:07.084Z,13.70
2019-05-07T19:10:37.570Z,13.50
2019-05-07T19:13:13.479Z,13.30
2019-05-07T19:15:48.674Z,13.20
2019-05-07T19:18:24.660Z,13.10
2019-05-07T19:20:59.743Z,12.90
2019-05-07T19:23:36.657Z,12.90
2019-05-07T19:26:16.565Z,12.80
2019-05-07T19:28:53.097Z,12.70
2019-05-07T19:31:35.878Z,12.70
2019-05-07T19:34:16.409Z,12.50
2019-05-07T19:36:51.995Z,12.30
2019-05-07T19:39:32.295Z,12.30
2019-05-07T19:42:06.130Z,12.20
2019-05-07T19:44:42.305Z,12.10
2019-05-07T19:47:17.429Z,12.00
2019-05-07T19:49:52.513Z,12.00
2019-05-07T19:52:33.139Z,12.00
2019-05-07T19:55:07.166Z,11.80
2019-05-07T19:57:55.071Z,11.60
2019-05-07T20:00:29.271Z,11.50
2019-05-07T20:03:04.784Z,11.50
2019-05-07T20:05:39.047Z,11.40
2019-05-07T20:08:14.288Z,11.40
2019-05-07T20:10:57.589Z,11.30
2019-05-07T20:13:36.052Z,11.20
2019-05-07T20:16:16.806Z,11.00
2019-05-07T20:18:52.405Z,10.90
2019-05-07T20:21:26.895Z,10.90
2019-05-07T20:24:01.901Z,10.80
2019-05-07T20:26:35.497Z,10.80
2019-05-07T20:29:09.239Z,10.70
2019-05-07T20:31:44.052Z,10.70
2019-05-07T20:34:18.399Z,10.60
2019-05-07T20:36:53.547Z,10.40
2019-05-07T20:39:28.011Z,10.30
2019-05-07T20:42:03.237Z,10.20
2019-05-07T20:44:56.699Z,10.20
2019-05-07T20:47:32.557Z,10.20
2019-05-07T20:50:07.912Z,10.30
2019-05-07T20:52:42.681Z,10.30
2019-05-07T20:55:38.723Z,10.20
2019-05-07T20:58:12.852Z,10.10
2019-05-07T21:00:47.223Z,10.10
2019-05-07T21:03:23.700Z,10.00
2019-05-07T21:05:58.040Z,10.00
2019-05-07T21:08:32.257Z,10.00
2019-05-07T21:11:06.689Z,9.90
2019-05-07T21:13:44.575Z,9.90
2019-05-07T21:16:18.033Z,9.90
2019-05-07T21:18:52.998Z,9.90
2019-05-07T21:21:26.796Z,9.80
2019-05-07T21:24:02.066Z,9.80
2019-05-07T21:26:36.089Z,9.70
2019-05-07T21:29:09.389Z,9.70
2019-05-07T21:31:43.398Z,9.60
2019-05-07T21:34:16.815Z,9.50
2019-05-07T21:36:52.294Z,9.40
2019-05-07T21:39:25.470Z,9.30
2019-05-07T21:41:59.714Z,9.20
2019-05-07T21:44:33.823Z,9.10
2019-05-07T21:47:07.810Z,9.20
2019-05-07T21:49:43.085Z,9.20
2019-05-07T21:52:17.190Z,9.20
2019-05-07T21:54:57.714Z,9.10
2019-05-07T21:57:45.678Z,9.10
2019-05-07T22:00:33.977Z,9.00
2019-05-07T22:03:13.042Z,9.00
2019-05-07T22:05:47.172Z,9.00
2019-05-07T22:08:21.946Z,9.00
2019-05-07T22:10:55.562Z,9.00
2019-05-07T22:13:29.226Z,8.90
2019-05-07T22:16:02.920Z,8.90
2019-05-07T22:18:37.239Z,8.70
2019-05-07T22:21:12.470Z,8.70
2019-05-07T22:23:46.780Z,8.70
2019-05-07T22:26:23.865Z,8.70
2019-05-07T22:28:55.931Z,8.70
2019-05-07T22:31:44.932Z,8.70
2019-05-07T22:34:28.212Z,8.70
2019-05-07T22:37:03.268Z,8.60
2019-05-07T22:39:36.334Z,8.50
2019-05-07T22:42:11.739Z,8.40
2019-05-07T22:44:44.923Z,8.40
2019-05-07T22:47:22.864Z,8.40
2019-05-07T22:49:57.718Z,8.40
2019-05-07T22:52:32.678Z,8.30
2019-05-07T22:55:06.447Z,8.20
2019-05-07T22:58:08.797Z,8.10
2019-05-07T23:00:57.914Z,8.00
2019-05-07T23:03:32.420Z,7.90
2019-05-07T23:06:12.303Z,7.80
2019-05-07T23:08:45.318Z,7.80
2019-05-07T23:11:19.340Z,7.70
2019-05-07T23:13:54.730Z,7.70
2019-05-07T23:16:28.093Z,7.60
2019-05-07T23:19:02.107Z,7.60
2019-05-07T23:21:35.933Z,7.60
2019-05-07T23:24:11.101Z,7.60
2019-05-07T23:26:49.977Z,7.60
2019-05-07T23:29:22.216Z,7.70
2019-05-07T23:31:55.283Z,7.70
2019-05-07T23:34:32.448Z,7.70
2019-05-07T23:37:05.445Z,7.70
2019-05-07T23:39:42.357Z,7.70
2019-05-07T23:42:20.303Z,7.70
2019-05-07T23:44:53.636Z,7.70
2019-05-07T23:47:26.908Z,7.70
2019-05-07T23:50:02.075Z,7.60
2019-05-07T23:52:35.825Z,7.50
2019-05-07T23:55:12.112Z,7.30
2019-05-07T23:57:45.643Z,7.20
